Time;durP1;ratioP1;P1;durP2;ratioP2;P2;SDS_P1;SDS_P2;PMS_P1;PMS_P2;Temp;Humidity;BMP_temperature;BMP_pressure;BME280_temperature;BME280_humidity;BME280_pressure;Samples;Min_cycle;Max_cycle;Signal;HPM_P1;HPM_P2
2023/02/09 00:01:57;;;;;;;;;;;-3.50;73.80;;;;;;5002433;28;87036;-37
2023/02/09 00:04:22;;;;;;;;;;;-3.40;73.70;;;;;;5002488;28;87274;-37
2023/02/09 00:06:48;;;;;;;;;;;-3.40;73.70;;;;;;5000886;28;90798;-37
2023/02/09 00:09:13;;;;;;;;;;;-3.40;73.50;;;;;;5002268;28;87233;-37
2023/02/09 00:14:23;;;;;;;;;;;-3.50;73.80;;;;;;5004458;28;87103;-37
2023/02/09 00:16:49;;;;;;;;;;;-3.50;73.60;;;;;;5002014;28;87943;-40
2023/02/09 00:19:15;;;;;;;;;;;-3.50;73.60;;;;;;5002017;28;87954;-37
2023/02/09 00:21:41;;;;;;;;;;;-3.50;73.40;;;;;;5001975;28;87140;-37
2023/02/09 00:24:09;;;;;;;;;;;-3.50;74.00;;;;;;5002849;28;87386;-37
2023/02/09 00:26:35;;;;;;;;;;;-3.50;73.50;;;;;;5001635;28;88367;-37
2023/02/09 00:29:01;;;;;;;;;;;-3.50;73.60;;;;;;5004622;28;87107;-37
2023/02/09 00:31:26;;;;;;;;;;;-3.60;73.50;;;;;;5004832;28;88633;-37
2023/02/09 00:33:52;;;;;;;;;;;-3.50;73.30;;;;;;5005031;28;89180;-37
2023/02/09 00:36:17;;;;;;;;;;;-3.50;73.20;;;;;;5008211;28;87204;-37
2023/02/09 00:38:43;;;;;;;;;;;-3.50;73.30;;;;;;5005144;28;89156;-37
2023/02/09 00:41:09;;;;;;;;;;;-3.60;73.50;;;;;;5005494;28;87182;-37
2023/02/09 00:43:34;;;;;;;;;;;-3.60;73.50;;;;;;5005392;28;87887;-37
2023/02/09 00:46:00;;;;;;;;;;;-3.60;73.60;;;;;;5004801;28;89422;-37
2023/02/09 00:48:26;;;;;;;;;;;-3.60;73.70;;;;;;5005767;28;86570;-37
2023/02/09 00:50:52;;;;;;;;;;;-3.60;73.70;;;;;;5005275;28;88333;-37
2023/02/09 00:53:18;;;;;;;;;;;-3.60;73.50;;;;;;5005015;28;88128;-37
2023/02/09 00:55:43;;;;;;;;;;;-3.70;73.50;;;;;;5004552;28;88081;-37
2023/02/09 00:58:09;;;;;;;;;;;-3.70;73.50;;;;;;5007906;28;88291;-37
2023/02/09 01:00:35;;;;;;;;;;;-3.60;73.50;;;;;;5005452;28;87069;-37
2023/02/09 01:03:00;;;;;;;;;;;-3.60;73.30;;;;;;5005146;28;89140;-37
2023/02/09 01:05:25;;;;;;;;;;;-3.70;73.40;;;;;;5004262;28;89528;-37
2023/02/09 01:07:51;;;;;;;;;;;-3.60;73.40;;;;;;5005006;28;86752;-37
2023/02/09 01:10:16;;;;;;;;;;;-3.70;73.30;;;;;;5005061;28;88643;-36
2023/02/09 01:12:42;;;;;;;;;;;-3.70;73.50;;;;;;5005020;28;87810;-37
2023/02/09 01:15:09;;;;;;;;;;;-3.70;73.40;;;;;;5005030;28;87128;-37
2023/02/09 01:17:34;;;;;;;;;;;-3.70;73.30;;;;;;5004765;28;87017;-37
2023/02/09 01:20:00;;;;;;;;;;;-3.80;73.50;;;;;;5006786;28;90121;-37
2023/02/09 01:22:25;;;;;;;;;;;-3.80;73.30;;;;;;5004564;28;89723;-37
2023/02/09 01:24:51;;;;;;;;;;;-3.80;73.60;;;;;;5004231;28;89820;-37
2023/02/09 01:27:17;;;;;;;;;;;-3.80;73.50;;;;;;5004401;28;87143;-37
2023/02/09 01:29:42;;;;;;;;;;;-3.80;73.30;;;;;;5004690;28;89386;-37
2023/02/09 01:32:08;;;;;;;;;;;-3.80;73.40;;;;;;5004092;28;89601;-37
2023/02/09 01:34:33;;;;;;;;;;;-3.80;73.50;;;;;;5004951;28;87426;-37
2023/02/09 01:36:59;;;;;;;;;;;-3.80;73.30;;;;;;5004919;28;88843;-37
2023/02/09 01:39:24;;;;;;;;;;;-3.80;73.20;;;;;;5003244;28;89288;-37
2023/02/09 01:41:50;;;;;;;;;;;-3.90;73.30;;;;;;5007080;28;86957;-37
2023/02/09 01:44:15;;;;;;;;;;;-3.90;73.40;;;;;;5003423;28;90851;-37
2023/02/09 01:46:42;;;;;;;;;;;-3.90;73.50;;;;;;5004234;28;87178;-37
2023/02/09 01:49:07;;;;;;;;;;;-3.90;73.40;;;;;;5004572;28;87591;-37
2023/02/09 01:51:39;;;;;;;;;;;-3.90;73.40;;;;;;5004121;28;89086;-37
2023/02/09 01:54:06;;;;;;;;;;;-3.90;73.40;;;;;;5004210;28;87146;-37
2023/02/09 01:56:32;;;;;;;;;;;-3.90;73.40;;;;;;5004163;28;88760;-37
2023/02/09 01:58:58;;;;;;;;;;;-3.90;73.40;;;;;;5003944;28;88276;-37
2023/02/09 02:01:24;;;;;;;;;;;-3.90;73.40;;;;;;5004333;28;86579;-36
2023/02/09 02:03:50;;;;;;;;;;;-3.90;73.30;;;;;;5006706;28;88202;-37
2023/02/09 02:06:17;;;;;;;;;;;-3.90;73.40;;;;;;5003882;28;87157;-36
2023/02/09 02:08:54;;;;;;;;;;;-4.00;73.20;;;;;;5003462;28;88559;-37
2023/02/09 02:11:22;;;;;;;;;;;-4.00;73.30;;;;;;5003654;28;89866;-37
2023/02/09 02:13:48;;;;;;;;;;;-4.00;73.40;;;;;;5003714;28;87152;-37
2023/02/09 02:16:13;;;;;;;;;;;-4.00;73.20;;;;;;5003804;28;88759;-37
2023/02/09 02:18:54;;;;;;;;;;;-4.00;73.40;;;;;;5003975;28;87723;-36
2023/02/09 02:21:28;;;;;;;;;;;-4.00;73.40;;;;;;5003827;28;87163;-37
2023/02/09 02:23:59;;;;;;;;;;;-4.00;73.30;;;;;;5006080;28;88731;-37
2023/02/09 02:26:43;;;;;;;;;;;-4.00;73.30;;;;;;5004093;28;86411;-37
2023/02/09 02:29:12;;;;;;;;;;;-4.00;73.30;;;;;;5003686;28;88234;-37
2023/02/09 02:31:49;;;;;;;;;;;-4.10;73.30;;;;;;5003261;28;89209;-37
2023/02/09 02:34:18;;;;;;;;;;;-4.10;73.50;;;;;;5003404;28;88396;-37
2023/02/09 02:37:18;;;;;;;;;;;-4.10;73.50;;;;;;5003404;28;88343;-36
2023/02/09 02:39:56;;;;;;;;;;;-4.10;73.40;;;;;;4961433;28;88084;-37
2023/02/09 02:45:11;;;;;;;;;;;-4.10;73.50;;;;;;5003307;28;86998;-37
2023/02/09 02:47:38;;;;;;;;;;;-4.20;73.50;;;;;;5005968;28;89236;-37
2023/02/09 02:50:14;;;;;;;;;;;-4.20;73.50;;;;;;5003662;28;87388;-37
2023/02/09 02:52:41;;;;;;;;;;;-4.20;73.40;;;;;;5003539;28;88983;-37
2023/02/09 02:55:12;;;;;;;;;;;-4.20;73.50;;;;;;5003579;28;87154;-37
2023/02/09 02:57:39;;;;;;;;;;;-4.20;73.60;;;;;;5003176;28;88974;-37
2023/02/09 03:00:28;;;;;;;;;;;-4.20;73.50;;;;;;5002283;28;89578;-36
2023/02/09 03:02:55;;;;;;;;;;;-4.20;73.30;;;;;;4997048;28;87075;-37
2023/02/09 03:05:22;;;;;;;;;;;-4.20;73.30;;;;;;5003031;28;87120;-37
2023/02/09 03:07:48;;;;;;;;;;;-4.30;73.40;;;;;;5002801;28;89382;-36
2023/02/09 03:10:24;;;;;;;;;;;-4.30;73.40;;;;;;5006228;28;88012;-37
2023/02/09 03:13:06;;;;;;;;;;;-4.30;73.30;;;;;;5002538;28;89418;-37
2023/02/09 03:15:50;;;;;;;;;;;-4.30;73.30;;;;;;5002835;28;87192;-36
2023/02/09 03:18:30;;;;;;;;;;;-4.30;73.30;;;;;;5003651;28;87534;-37
2023/02/09 03:20:59;;;;;;;;;;;-4.30;73.20;;;;;;5002695;28;89923;-37
2023/02/09 03:23:33;;;;;;;;;;;-4.30;73.30;;;;;;5002924;28;87049;-37
2023/02/09 03:26:02;;;;;;;;;;;-4.30;73.30;;;;;;5002188;28;89034;-37
2023/02/09 03:28:29;;;;;;;;;;;-4.40;73.30;;;;;;5002055;28;89262;-37
2023/02/09 03:30:56;;;;;;;;;;;-4.30;73.50;;;;;;5002737;28;87177;-37
2023/02/09 03:33:23;;;;;;;;;;;-4.40;73.20;;;;;;5005222;28;88786;-36
2023/02/09 03:35:50;;;;;;;;;;;-4.40;73.30;;;;;;5002525;28;87173;-37
2023/02/09 03:38:16;;;;;;;;;;;-4.40;73.30;;;;;;5002550;28;88756;-37
2023/02/09 03:40:42;;;;;;;;;;;-4.40;73.40;;;;;;5002339;28;89290;-36
2023/02/09 03:43:07;;;;;;;;;;;-4.40;73.30;;;;;;5003113;28;86360;-37
2023/02/09 03:45:33;;;;;;;;;;;-4.50;73.30;;;;;;5002535;28;88445;-37
2023/02/09 03:47:58;;;;;;;;;;;-4.50;73.30;;;;;;5001943;28;89302;-36
2023/02/09 03:50:23;;;;;;;;;;;-4.50;73.40;;;;;;5002145;28;87967;-36
2023/02/09 03:52:49;;;;;;;;;;;-4.50;73.30;;;;;;5002474;28;89256;-36
2023/02/09 03:55:15;;;;;;;;;;;-4.50;73.30;;;;;;5004982;28;89376;-36
2023/02/09 03:57:40;;;;;;;;;;;-4.50;73.40;;;;;;5002523;28;88427;-36
2023/02/09 04:00:06;;;;;;;;;;;-4.50;73.40;;;;;;5001852;28;89624;-37
2023/02/09 04:02:32;;;;;;;;;;;-4.50;73.30;;;;;;5001556;28;87136;-37
2023/02/09 04:04:57;;;;;;;;;;;-4.60;73.40;;;;;;5002168;28;88370;-36
2023/02/09 04:07:23;;;;;;;;;;;-4.60;73.40;;;;;;5002238;28;88517;-36
2023/02/09 04:09:48;;;;;;;;;;;-4.60;73.40;;;;;;5002202;28;87151;-37
2023/02/09 04:12:14;;;;;;;;;;;-4.60;73.40;;;;;;5002099;28;88831;-37
2023/02/09 04:14:39;;;;;;;;;;;-4.60;73.40;;;;;;5001280;28;90359;-37
2023/02/09 04:17:05;;;;;;;;;;;-4.60;73.40;;;;;;5004592;28;87035;-37
2023/02/09 04:19:30;;;;;;;;;;;-4.60;73.30;;;;;;5001673;28;89434;-37
2023/02/09 04:21:56;;;;;;;;;;;-4.60;73.40;;;;;;5002086;28;87240;-37
2023/02/09 04:24:21;;;;;;;;;;;-4.60;73.50;;;;;;5002013;28;87516;-37
2023/02/09 04:26:47;;;;;;;;;;;-4.70;73.20;;;;;;5001773;28;89116;-36
2023/02/09 04:29:12;;;;;;;;;;;-4.70;73.20;;;;;;5001778;28;87184;-36
2023/02/09 04:31:38;;;;;;;;;;;-4.70;73.30;;;;;;5002774;28;87223;-36
2023/02/09 04:34:03;;;;;;;;;;;-4.70;73.30;;;;;;5001734;28;88073;-36
2023/02/09 04:36:28;;;;;;;;;;;-4.70;73.30;;;;;;5005284;28;87236;-36
2023/02/09 04:38:54;;;;;;;;;;;-4.70;73.30;;;;;;5000806;28;89313;-37
2023/02/09 04:41:19;;;;;;;;;;;-4.70;73.20;;;;;;5001878;28;87103;-37
2023/02/09 04:43:45;;;;;;;;;;;-4.70;73.10;;;;;;5001751;28;88722;-37
2023/02/09 04:46:15;;;;;;;;;;;-4.70;73.30;;;;;;5001980;28;87852;-37
2023/02/09 04:48:40;;;;;;;;;;;-4.70;73.30;;;;;;5001619;28;86977;-37
2023/02/09 04:51:06;;;;;;;;;;;-4.80;73.30;;;;;;5002136;28;87425;-37
2023/02/09 04:53:31;;;;;;;;;;;-4.80;73.40;;;;;;5001260;28;89363;-36
2023/02/09 04:55:57;;;;;;;;;;;-4.80;73.30;;;;;;5002271;28;86551;-36
2023/02/09 05:01:07;;;;;;;;;;;-4.80;73.40;;;;;;5001704;28;86986;-36
2023/02/09 05:03:33;;;;;;;;;;;-4.80;73.30;;;;;;5001290;28;88045;-36
2023/02/09 05:06:00;;;;;;;;;;;-4.90;73.40;;;;;;5001108;28;87998;-36
2023/02/09 05:08:26;;;;;;;;;;;-4.90;73.40;;;;;;5001603;28;87101;-37
2023/02/09 05:10:52;;;;;;;;;;;-4.90;73.30;;;;;;5001579;28;87838;-36
2023/02/09 05:13:19;;;;;;;;;;;-4.90;73.40;;;;;;5001261;28;88084;-36
2023/02/09 05:15:44;;;;;;;;;;;-4.90;73.40;;;;;;5003589;28;87553;-37
2023/02/09 05:18:10;;;;;;;;;;;-4.90;73.40;;;;;;5004696;28;88961;-36
2023/02/09 05:20:35;;;;;;;;;;;-4.90;73.50;;;;;;5007938;28;88754;-36
2023/02/09 05:23:01;;;;;;;;;;;-5.00;73.50;;;;;;5004871;28;87015;-37
2023/02/09 05:25:27;;;;;;;;;;;-5.00;73.50;;;;;;5004303;28;89477;-36
2023/02/09 05:27:53;;;;;;;;;;;-5.00;73.40;;;;;;5003768;28;88145;-36
2023/02/09 05:30:18;;;;;;;;;;;-5.00;73.30;;;;;;5004486;28;89872;-36
2023/02/09 05:32:44;;;;;;;;;;;-5.00;73.30;;;;;;5004268;28;89031;-36
2023/02/09 05:35:09;;;;;;;;;;;-5.00;73.30;;;;;;5004535;28;87148;-36
2023/02/09 05:37:35;;;;;;;;;;;-5.00;73.40;;;;;;5004594;28;88841;-36
2023/02/09 05:40:00;;;;;;;;;;;-5.00;73.40;;;;;;5004035;28;89377;-37
2023/02/09 05:42:26;;;;;;;;;;;-5.10;73.40;;;;;;5007396;28;87070;-36
2023/02/09 05:44:52;;;;;;;;;;;-5.00;73.40;;;;;;5004592;28;88710;-36
2023/02/09 05:47:19;;;;;;;;;;;-5.10;73.40;;;;;;5004455;28;87337;-36
2023/02/09 05:49:44;;;;;;;;;;;-5.10;73.50;;;;;;5004421;28;88601;-37
2023/02/09 05:52:10;;;;;;;;;;;-5.10;73.60;;;;;;5003214;28;90813;-36
2023/02/09 05:54:36;;;;;;;;;;;-5.20;73.60;;;;;;5004426;28;87187;-37
2023/02/09 05:57:01;;;;;;;;;;;-5.20;73.50;;;;;;5004171;28;88729;-37
2023/02/09 05:59:27;;;;;;;;;;;-5.20;73.60;;;;;;5003681;28;89094;-37
2023/02/09 06:01:53;;;;;;;;;;;-5.10;73.50;;;;;;5004145;28;87530;-36
2023/02/09 06:04:18;;;;;;;;;;;-5.20;73.40;;;;;;5006751;28;88515;-36
2023/02/09 06:06:44;;;;;;;;;;;-5.10;73.60;;;;;;5003706;28;87125;-36
2023/02/09 06:09:09;;;;;;;;;;;-5.20;73.40;;;;;;5004970;28;87260;-36
2023/02/09 06:11:35;;;;;;;;;;;-5.10;73.40;;;;;;5003774;28;89830;-36
2023/02/09 06:14:00;;;;;;;;;;;-5.20;73.30;;;;;;5004368;28;87121;-36
2023/02/09 06:16:26;;;;;;;;;;;-5.20;73.40;;;;;;5003014;28;88108;-36
2023/02/09 06:18:51;;;;;;;;;;;-5.20;73.50;;;;;;5003830;28;87990;-36
2023/02/09 06:21:17;;;;;;;;;;;-5.20;73.40;;;;;;5004001;28;87086;-36
2023/02/09 06:23:42;;;;;;;;;;;-5.20;73.30;;;;;;5006488;28;87700;-36
2023/02/09 06:26:09;;;;;;;;;;;-5.20;73.40;;;;;;5003357;28;87144;-36
2023/02/09 06:28:35;;;;;;;;;;;-5.20;73.40;;;;;;5003634;28;88927;-36
2023/02/09 06:31:01;;;;;;;;;;;-5.30;73.40;;;;;;5003515;28;88463;-36
2023/02/09 06:33:27;;;;;;;;;;;-5.20;73.40;;;;;;5004187;28;86538;-37
2023/02/09 06:35:52;;;;;;;;;;;-5.20;73.40;;;;;;5003737;28;87943;-36
2023/02/09 06:38:18;;;;;;;;;;;-5.30;73.40;;;;;;5003234;28;88751;-36
2023/02/09 06:40:45;;;;;;;;;;;-5.30;73.40;;;;;;5002855;28;88107;-36
2023/02/09 06:43:10;;;;;;;;;;;-5.30;73.40;;;;;;5003493;28;89545;-37
2023/02/09 06:45:39;;;;;;;;;;;-5.30;73.30;;;;;;5005832;28;88403;-36
2023/02/09 06:48:05;;;;;;;;;;;-5.30;73.40;;;;;;5003496;28;88889;-36
2023/02/09 06:50:31;;;;;;;;;;;-5.30;73.30;;;;;;5002922;28;89274;-36
2023/02/09 06:52:56;;;;;;;;;;;-5.30;73.30;;;;;;5003287;28;87089;-36
2023/02/09 06:55:22;;;;;;;;;;;-5.30;73.30;;;;;;5003265;28;88689;-36
2023/02/09 06:57:48;;;;;;;;;;;-5.30;73.30;;;;;;5003711;28;87269;-36
2023/02/09 07:00:13;;;;;;;;;;;-5.30;73.30;;;;;;5003039;28;87102;-36
2023/02/09 07:02:40;;;;;;;;;;;-5.30;73.20;;;;;;5003162;28;90068;-36
2023/02/09 07:05:06;;;;;;;;;;;-5.30;73.40;;;;;;5002040;28;89373;-36
2023/02/09 07:07:31;;;;;;;;;;;-5.30;73.40;;;;;;5005989;28;87136;-36
2023/02/09 07:09:57;;;;;;;;;;;-5.30;73.30;;;;;;5002621;28;89836;-36
2023/02/09 07:12:22;;;;;;;;;;;-5.30;73.30;;;;;;5003155;28;86921;-37
2023/02/09 07:14:48;;;;;;;;;;;-5.30;73.30;;;;;;5002709;28;88840;-36
2023/02/09 07:17:13;;;;;;;;;;;-5.30;73.30;;;;;;5002437;28;89667;-37
2023/02/09 07:19:39;;;;;;;;;;;-5.30;73.20;;;;;;5002945;28;87242;-36
2023/02/09 07:22:04;;;;;;;;;;;-5.40;73.20;;;;;;5003788;28;87382;-36
2023/02/09 07:24:29;;;;;;;;;;;-5.40;73.30;;;;;;5002444;28;89406;-37
2023/02/09 07:26:55;;;;;;;;;;;-5.40;73.20;;;;;;5002819;28;87137;-36
2023/02/09 07:29:20;;;;;;;;;;;-5.40;73.30;;;;;;5004670;28;88762;-36
2023/02/09 07:31:46;;;;;;;;;;;-5.40;73.30;;;;;;5002590;28;87221;-36
2023/02/09 07:34:11;;;;;;;;;;;-5.40;73.30;;;;;;5002959;28;87419;-36
2023/02/09 07:36:37;;;;;;;;;;;-5.40;73.30;;;;;;5002099;28;89632;-36
2023/02/09 07:39:02;;;;;;;;;;;-5.40;73.30;;;;;;5002151;28;87162;-36
2023/02/09 07:41:28;;;;;;;;;;;-5.40;73.40;;;;;;5002499;28;88502;-36
2023/02/09 07:43:54;;;;;;;;;;;-5.40;73.40;;;;;;5002331;28;89396;-36
2023/02/09 07:46:20;;;;;;;;;;;-5.40;73.50;;;;;;5002883;28;87029;-37
2023/02/09 07:48:47;;;;;;;;;;;-5.40;73.40;;;;;;5002502;28;87954;-36
2023/02/09 07:51:19;;;;;;;;;;;-5.40;73.60;;;;;;5005145;28;88000;-36
2023/02/09 07:53:46;;;;;;;;;;;-5.50;73.50;;;;;;5001772;28;88724;-37
2023/02/09 07:56:12;;;;;;;;;;;-5.50;73.60;;;;;;5002277;28;87328;-37
2023/02/09 07:58:37;;;;;;;;;;;-5.50;73.70;;;;;;5002432;28;87162;-37
2023/02/09 08:01:04;;;;;;;;;;;-5.50;73.70;;;;;;5002248;28;89112;-36
2023/02/09 08:03:30;;;;;;;;;;;-5.50;73.70;;;;;;5001952;28;89216;-37
2023/02/09 08:06:02;;;;;;;;;;;-5.50;73.80;;;;;;5002011;28;87142;-36
2023/02/09 08:08:27;;;;;;;;;;;-5.50;73.90;;;;;;5002098;28;89046;-37
2023/02/09 08:10:57;;;;;;;;;;;-5.50;73.90;;;;;;5002512;28;88865;-37
2023/02/09 08:13:23;;;;;;;;;;;-5.60;73.90;;;;;;5004815;28;87124;-37
2023/02/09 08:15:54;;;;;;;;;;;-5.50;74.00;;;;;;5001751;28;88383;-37
2023/02/09 08:18:21;;;;;;;;;;;-5.50;74.10;;;;;;5001662;28;88065;-37
2023/02/09 08:20:47;;;;;;;;;;;-5.60;74.20;;;;;;5002088;28;89665;-36
2023/02/09 08:23:19;;;;;;;;;;;-5.60;74.30;;;;;;5002087;28;88929;-37
2023/02/09 08:25:47;;;;;;;;;;;-5.60;74.40;;;;;;5002176;28;87192;-37
2023/02/09 08:28:13;;;;;;;;;;;-5.60;74.40;;;;;;5001889;28;88707;-37
2023/02/09 08:30:38;;;;;;;;;;;-5.60;74.50;;;;;;5001780;28;89479;-36
2023/02/09 08:33:04;;;;;;;;;;;-5.60;74.50;;;;;;5005437;28;87819;-36
2023/02/09 08:35:29;;;;;;;;;;;-5.60;75.20;;;;;;5002128;28;88769;-37
2023/02/09 08:37:58;;;;;;;;;;;-5.70;74.70;;;;;;5001947;28;87126;-36
2023/02/09 08:40:23;;;;;;;;;;;-5.70;74.80;;;;;;5002128;28;87440;-36
2023/02/09 08:42:49;;;;;;;;;;;-5.70;74.80;;;;;;5000698;28;90296;-37
2023/02/09 08:45:14;;;;;;;;;;;-5.70;74.80;;;;;;5001908;28;87107;-36
2023/02/09 08:47:40;;;;;;;;;;;-5.70;74.90;;;;;;5002192;28;87516;-37
2023/02/09 08:50:05;;;;;;;;;;;-5.70;74.90;;;;;;5004396;28;87800;-37
2023/02/09 08:52:31;;;;;;;;;;;-5.70;74.90;;;;;;5005164;28;87116;-36
2023/02/09 08:54:56;;;;;;;;;;;-5.70;74.90;;;;;;5007772;28;88820;-36
2023/02/09 08:57:22;;;;;;;;;;;-5.70;75.10;;;;;;5004491;28;87293;-37
2023/02/09 08:59:48;;;;;;;;;;;-5.70;75.20;;;;;;5005087;28;89306;-37
2023/02/09 09:02:13;;;;;;;;;;;-5.70;75.40;;;;;;5004215;28;89369;-36
2023/02/09 09:04:39;;;;;;;;;;;-5.70;75.30;;;;;;5004512;28;87142;-36
2023/02/09 09:07:04;;;;;;;;;;;-5.70;75.40;;;;;;5003515;28;88861;-36
2023/02/09 09:09:29;;;;;;;;;;;-5.70;75.50;;;;;;5004519;28;89528;-36
2023/02/09 09:11:55;;;;;;;;;;;-5.70;75.50;;;;;;5004816;28;87146;-37
2023/02/09 09:14:21;;;;;;;;;;;-5.70;75.50;;;;;;5005002;28;88694;-36
2023/02/09 09:16:46;;;;;;;;;;;-5.70;75.60;;;;;;5007601;28;87979;-36
2023/02/09 09:19:12;;;;;;;;;;;-5.70;75.70;;;;;;5004820;28;88729;-37
2023/02/09 09:21:37;;;;;;;;;;;-5.70;75.80;;;;;;5004426;28;89103;-37
2023/02/09 09:24:03;;;;;;;;;;;-5.70;75.80;;;;;;5005364;28;86165;-36
2023/02/09 09:26:28;;;;;;;;;;;-5.70;75.70;;;;;;5004847;28;88153;-36
2023/02/09 09:28:54;;;;;;;;;;;-5.70;75.80;;;;;;5003974;28;89475;-37
2023/02/09 09:31:19;;;;;;;;;;;-5.70;75.80;;;;;;5003948;28;88086;-36
2023/02/09 09:33:45;;;;;;;;;;;-5.70;75.90;;;;;;5004503;28;89495;-36
2023/02/09 09:36:11;;;;;;;;;;;-5.70;76.00;;;;;;5004055;28;89354;-37
2023/02/09 09:38:37;;;;;;;;;;;-5.70;76.00;;;;;;5007342;28;87092;-37
2023/02/09 09:41:16;;;;;;;;;;;-5.70;76.10;;;;;;5004236;28;89337;-37
2023/02/09 09:43:42;;;;;;;;;;;-5.70;76.10;;;;;;5004441;28;87031;-36
2023/02/09 09:46:11;;;;;;;;;;;-5.70;76.10;;;;;;5004572;28;88709;-36
2023/02/09 09:48:41;;;;;;;;;;;-5.70;76.10;;;;;;5004350;28;88630;-37
2023/02/09 09:51:12;;;;;;;;;;;-5.70;76.10;;;;;;5004193;28;87163;-36
2023/02/09 09:53:38;;;;;;;;;;;-5.70;76.20;;;;;;5004487;28;87402;-36
2023/02/09 09:56:06;;;;;;;;;;;-5.70;76.30;;;;;;5003305;28;90614;-37
2023/02/09 09:58:32;;;;;;;;;;;-5.70;76.10;;;;;;5004252;28;87146;-37
2023/02/09 10:00:58;;;;;;;;;;;-5.70;76.10;;;;;;5006190;28;87943;-37
2023/02/09 10:03:24;;;;;;;;;;;-5.60;76.20;;;;;;5004158;28;87256;-37
2023/02/09 10:05:51;;;;;;;;;;;-5.60;76.20;;;;;;5003444;28;88862;-37
2023/02/09 10:08:22;;;;;;;;;;;-5.60;76.10;;;;;;5003516;28;89579;-36
2023/02/09 10:10:56;;;;;;;;;;;-5.60;76.00;;;;;;5004014;28;87123;-37
2023/02/09 10:13:26;;;;;;;;;;;-5.60;75.90;;;;;;5004654;28;87461;-37
2023/02/09 10:15:52;;;;;;;;;;;-5.60;75.90;;;;;;5003675;28;88332;-36
2023/02/09 10:18:24;;;;;;;;;;;-5.60;75.90;;;;;;5003757;28;87156;-36
2023/02/09 10:21:01;;;;;;;;;;;-5.50;75.80;;;;;;5003166;28;88764;-36
2023/02/09 10:23:27;;;;;;;;;;;-5.50;75.90;;;;;;5006284;28;89999;-37
2023/02/09 10:25:52;;;;;;;;;;;-5.50;75.80;;;;;;5003872;28;88915;-36
2023/02/09 10:28:21;;;;;;;;;;;-5.50;75.90;;;;;;5003371;28;88522;-36
2023/02/09 10:30:49;;;;;;;;;;;-5.50;76.00;;;;;;5003743;28;86993;-37
2023/02/09 10:33:14;;;;;;;;;;;-5.50;75.90;;;;;;5003776;28;87011;-36
2023/02/09 10:35:45;;;;;;;;;;;-5.50;76.00;;;;;;5003017;28;89440;-37
2023/02/09 10:38:15;;;;;;;;;;;-5.50;76.10;;;;;;5004016;28;86234;-37
2023/02/09 10:40:41;;;;;;;;;;;-5.50;76.10;;;;;;5003672;28;88109;-37
2023/02/09 10:43:17;;;;;;;;;;;-5.50;76.10;;;;;;5006088;28;89327;-37
2023/02/09 10:45:44;;;;;;;;;;;-5.50;76.10;;;;;;5003019;28;88834;-37
2023/02/09 10:48:12;;;;;;;;;;;-5.50;76.20;;;;;;5018222;28;91389;-36
2023/02/09 10:50:51;;;;;;;;;;;-5.40;76.40;;;;;;5003441;28;87068;-37
2023/02/09 10:53:30;;;;;;;;;;;-5.40;76.20;;;;;;5003568;28;87871;-36
2023/02/09 10:56:04;;;;;;;;;;;-5.30;75.90;;;;;;5002822;28;89503;-36
2023/02/09 10:58:33;;;;;;;;;;;-5.20;75.70;;;;;;5003074;28;87031;-36
2023/02/09 11:00:59;;;;;;;;;;;-5.10;75.50;;;;;;5003565;28;87480;-36
2023/02/09 11:03:24;;;;;;;;;;;-5.10;75.40;;;;;;5003337;28;88709;-37
2023/02/09 11:06:00;;;;;;;;;;;-5.00;75.10;;;;;;5005306;28;87749;-37
2023/02/09 11:08:49;;;;;;;;;;;-5.00;74.90;;;;;;5002779;28;89478;-36
2023/02/09 11:11:22;;;;;;;;;;;-5.00;74.80;;;;;;4996546;28;88127;-37
2023/02/09 11:13:48;;;;;;;;;;;-5.00;74.90;;;;;;5002475;28;88316;-37
2023/02/09 11:16:25;;;;;;;;;;;-4.90;75.00;;;;;;5002797;28;88087;-37
2023/02/09 11:18:59;;;;;;;;;;;-4.90;75.00;;;;;;5003321;28;86969;-37
2023/02/09 11:21:39;;;;;;;;;;;-4.90;74.90;;;;;;5002849;28;87729;-37
2023/02/09 11:24:17;;;;;;;;;;;-4.90;75.00;;;;;;5002677;28;89265;-37
2023/02/09 11:26:52;;;;;;;;;;;-4.90;75.00;;;;;;5002791;28;87178;-37
2023/02/09 11:29:17;;;;;;;;;;;-4.90;74.90;;;;;;5005701;28;88755;-37
2023/02/09 11:31:46;;;;;;;;;;;-4.80;74.90;;;;;;5002665;28;87158;-37
2023/02/09 11:34:17;;;;;;;;;;;-4.80;74.70;;;;;;5002511;28;88808;-37
2023/02/09 11:36:47;;;;;;;;;;;-4.70;74.80;;;;;;5001556;28;90329;-37
2023/02/09 11:39:36;;;;;;;;;;;-4.70;74.80;;;;;;5002711;28;87184;-36
2023/02/09 11:44:59;;;;;;;;;;;-4.70;74.60;;;;;;5002602;28;87163;-37
2023/02/09 11:47:47;;;;;;;;;;;-4.70;74.60;;;;;;5002367;28;87158;-37
2023/02/09 11:50:33;;;;;;;;;;;-4.70;74.50;;;;;;5002700;28;89026;-37
2023/02/09 11:53:00;;;;;;;;;;;-4.70;74.80;;;;;;4983305;28;89236;-37
2023/02/09 11:55:32;;;;;;;;;;;-4.60;74.70;;;;;;5002945;28;87727;-36
2023/02/09 11:58:04;;;;;;;;;;;-4.60;74.60;;;;;;5001952;28;89216;-37
2023/02/09 12:00:36;;;;;;;;;;;-4.60;74.40;;;;;;5002417;28;87182;-37
2023/02/09 12:03:10;;;;;;;;;;;-4.60;74.60;;;;;;5001994;28;88231;-37
2023/02/09 12:05:36;;;;;;;;;;;-4.60;74.70;;;;;;5001454;28;88452;-37
2023/02/09 12:08:02;;;;;;;;;;;-4.60;74.60;;;;;;5002232;28;87011;-37
2023/02/09 12:10:27;;;;;;;;;;;-4.60;74.60;;;;;;5002490;28;88829;-37
2023/02/09 12:13:05;;;;;;;;;;;-4.50;74.40;;;;;;5001967;28;89473;-36
2023/02/09 12:15:40;;;;;;;;;;;-4.50;74.70;;;;;;5004916;28;87029;-37
2023/02/09 12:18:20;;;;;;;;;;;-4.50;74.60;;;;;;5001643;28;89680;-36
2023/02/09 12:20:51;;;;;;;;;;;-4.50;74.60;;;;;;5002785;28;86292;-37
2023/02/09 12:23:16;;;;;;;;;;;-4.50;74.70;;;;;;5002405;28;88143;-37
2023/02/09 12:25:48;;;;;;;;;;;-4.50;74.60;;;;;;5005332;28;89563;-37
2023/02/09 12:28:15;;;;;;;;;;;-4.40;74.80;;;;;;5005142;28;88213;-37
2023/02/09 12:30:41;;;;;;;;;;;-4.40;74.90;;;;;;5005298;28;89407;-37
2023/02/09 12:33:16;;;;;;;;;;;-4.40;74.80;;;;;;5005263;28;89539;-37
2023/02/09 12:35:42;;;;;;;;;;;-4.40;74.70;;;;;;5005791;28;87068;-37
2023/02/09 12:38:08;;;;;;;;;;;-4.30;74.40;;;;;;5008283;28;87630;-37
2023/02/09 12:40:34;;;;;;;;;;;-4.40;74.50;;;;;;5004233;28;87381;-37
2023/02/09 12:43:00;;;;;;;;;;;-4.30;74.60;;;;;;5005323;28;89054;-37
2023/02/09 12:45:33;;;;;;;;;;;-4.40;74.60;;;;;;5005508;28;88722;-37
2023/02/09 12:48:20;;;;;;;;;;;-4.30;74.60;;;;;;5005477;28;87535;-37
2023/02/09 12:50:47;;;;;;;;;;;-4.30;74.60;;;;;;5005285;28;88685;-37
2023/02/09 12:53:22;;;;;;;;;;;-4.20;74.60;;;;;;5004576;28;88979;-37
2023/02/09 12:55:56;;;;;;;;;;;-4.30;74.60;;;;;;5004725;28;87331;-37
2023/02/09 12:58:51;;;;;;;;;;;-4.30;74.60;;;;;;5007799;28;87779;-37
2023/02/09 13:01:17;;;;;;;;;;;-4.30;74.80;;;;;;5005277;28;87070;-37
2023/02/09 13:03:59;;;;;;;;;;;-4.30;75.30;;;;;;5005217;28;87907;-37
2023/02/09 13:06:26;;;;;;;;;;;-4.20;74.70;;;;;;5004145;28;88047;-37
2023/02/09 13:08:53;;;;;;;;;;;-4.20;74.70;;;;;;5005173;28;87470;-37
2023/02/09 13:11:22;;;;;;;;;;;-4.20;74.70;;;;;;5005320;28;89022;-37
2023/02/09 13:14:00;;;;;;;;;;;-4.20;74.70;;;;;;5004756;28;88935;-37
2023/02/09 13:16:39;;;;;;;;;;;-4.20;74.50;;;;;;5004859;28;87193;-37
2023/02/09 13:19:10;;;;;;;;;;;-4.10;74.40;;;;;;5004259;28;89176;-37
2023/02/09 13:21:38;;;;;;;;;;;-4.10;74.50;;;;;;5007590;28;88506;-37
2023/02/09 13:24:07;;;;;;;;;;;-4.10;74.60;;;;;;5004712;28;88832;-37
2023/02/09 13:26:34;;;;;;;;;;;-4.10;75.00;;;;;;5004608;28;89419;-37
2023/02/09 13:29:12;;;;;;;;;;;-4.10;74.50;;;;;;5004384;28;86946;-37
2023/02/09 13:31:41;;;;;;;;;;;-4.10;74.60;;;;;;5004665;28;88714;-37
2023/02/09 13:34:15;;;;;;;;;;;-4.10;74.70;;;;;;5004425;28;88534;-37
2023/02/09 13:36:49;;;;;;;;;;;-4.00;74.80;;;;;;5004038;28;86381;-37
2023/02/09 13:39:21;;;;;;;;;;;-4.10;74.80;;;;;;5005159;28;86987;-37
2023/02/09 13:41:48;;;;;;;;;;;-4.10;74.70;;;;;;5003948;28;89736;-37
2023/02/09 13:44:19;;;;;;;;;;;-4.00;74.80;;;;;;5006960;28;88030;-37
2023/02/09 13:46:49;;;;;;;;;;;-4.00;74.70;;;;;;5004137;28;89293;-37
2023/02/09 13:49:17;;;;;;;;;;;-4.00;74.60;;;;;;5004632;28;86904;-37
2023/02/09 13:51:43;;;;;;;;;;;-4.00;74.70;;;;;;5004248;28;88712;-37
2023/02/09 13:54:16;;;;;;;;;;;-4.00;74.50;;;;;;5003913;28;87681;-37
2023/02/09 13:56:42;;;;;;;;;;;-4.00;74.70;;;;;;5004159;28;87059;-37
2023/02/09 13:59:10;;;;;;;;;;;-3.90;74.80;;;;;;5004571;28;87618;-37
2023/02/09 14:01:35;;;;;;;;;;;-3.90;74.70;;;;;;5004495;28;88771;-37
2023/02/09 14:04:06;;;;;;;;;;;-3.90;74.70;;;;;;5004159;28;87133;-37
2023/02/09 14:06:32;;;;;;;;;;;-3.90;74.60;;;;;;5006405;28;88855;-37
2023/02/09 14:08:58;;;;;;;;;;;-3.90;74.60;;;;;;5003162;28;88237;-37
2023/02/09 14:11:23;;;;;;;;;;;-3.90;74.60;;;;;;5003953;28;89912;-37
2023/02/09 14:13:51;;;;;;;;;;;-3.90;74.60;;;;;;5003405;28;88355;-37
2023/02/09 14:16:17;;;;;;;;;;;-3.80;74.70;;;;;;5004180;28;87124;-37
2023/02/09 14:18:45;;;;;;;;;;;-3.80;74.60;;;;;;5004002;28;89928;-37
2023/02/09 14:21:10;;;;;;;;;;;-3.80;74.70;;;;;;5003484;28;89267;-37
2023/02/09 14:23:36;;;;;;;;;;;-3.90;74.70;;;;;;5003838;28;87152;-37
2023/02/09 14:26:15;;;;;;;;;;;-3.80;74.70;;;;;;5004309;28;89073;-37
2023/02/09 14:28:42;;;;;;;;;;;-3.80;74.70;;;;;;5006436;28;88090;-37
2023/02/09 14:31:23;;;;;;;;;;;-3.80;74.60;;;;;;5003849;28;88814;-37
2023/02/09 14:33:50;;;;;;;;;;;-3.80;74.50;;;;;;5002758;28;90403;-37